Time;durP1;ratioP1;P1;durP2;ratioP2;P2;SDS_P1;SDS_P2;PMS_P1;PMS_P2;Temp;Humidity;BMP_temperature;BMP_pressure;BME280_temperature;BME280_humidity;BME280_pressure;Samples;Min_cycle;Max_cycle;Signal;HPM_P1;HPM_P2
2023/03/07 00:00:51;;;;;;;24.05;11.90;;;;;;;0.35;77.56;99426.88;1788302;80;21183;-65
2023/03/07 00:03:20;;;;;;;25.97;12.23;;;;;;;0.37;77.56;99419.48;1788433;80;21107;-65
2023/03/07 00:06:06;;;;;;;25.95;12.23;;;;;;;0.38;77.56;99420.67;1788158;79;21833;-64
2023/03/07 00:08:36;;;;;;;24.37;10.78;;;;;;;0.38;77.57;99417.98;1788170;80;21601;-68
2023/03/07 00:11:08;;;;;;;22.05;11.60;;;;;;;0.39;77.57;99410.73;1788260;80;21607;-66
2023/03/07 00:13:38;;;;;;;21.05;11.53;;;;;;;0.40;77.57;99413.78;1788465;80;21535;-65
2023/03/07 00:16:12;;;;;;;21.65;11.80;;;;;;;0.36;77.48;99411.05;1788165;80;21103;-66
2023/03/07 00:18:42;;;;;;;24.92;11.93;;;;;;;0.35;77.54;99402.12;1788274;80;21504;-65
2023/03/07 00:21:14;;;;;;;23.45;11.85;;;;;;;0.34;77.60;99400.44;1788426;80;21115;-66
2023/03/07 00:23:44;;;;;;;23.55;12.65;;;;;;;0.34;77.63;99395.05;1787989;80;21166;-66
2023/03/07 00:26:18;;;;;;;22.75;12.03;;;;;;;0.34;77.59;99387.47;1788222;80;21126;-66
2023/03/07 00:28:50;;;;;;;22.85;11.15;;;;;;;0.33;77.57;99385.78;1788175;79;21087;-65
2023/03/07 00:31:20;;;;;;;21.60;11.70;;;;;;;0.31;77.69;99383.23;1788193;79;21134;-66
2023/03/07 00:33:52;;;;;;;20.43;10.78;;;;;;;0.30;77.68;99381.05;1788036;80;21177;-64
2023/03/07 00:36:22;;;;;;;21.65;10.63;;;;;;;0.29;77.73;99382.05;1788226;80;21292;-67
2023/03/07 00:38:54;;;;;;;24.98;11.08;;;;;;;0.27;77.74;99379.17;1788141;79;21534;-65
2023/03/07 00:41:25;;;;;;;21.37;10.78;;;;;;;0.25;77.86;99371.24;1788350;79;21107;-64
2023/03/07 00:43:55;;;;;;;21.55;11.25;;;;;;;0.25;77.91;99370.40;1788373;80;21523;-66
2023/03/07 00:46:24;;;;;;;26.25;12.80;;;;;;;0.23;77.94;99375.09;1787941;80;21581;-66
2023/03/07 00:48:54;;;;;;;22.62;11.33;;;;;;;0.21;77.99;99372.56;1788344;79;21593;-65
2023/03/07 00:51:25;;;;;;;22.48;11.93;;;;;;;0.20;78.08;99370.88;1788291;79;21127;-65
2023/03/07 00:53:54;;;;;;;25.23;11.88;;;;;;;0.19;78.11;99367.83;1788032;79;21190;-65
2023/03/07 00:56:24;;;;;;;21.07;11.73;;;;;;;0.20;78.13;99360.59;1788188;80;21130;-65
2023/03/07 00:58:53;;;;;;;22.93;11.45;;;;;;;0.20;78.11;99373.56;1788316;80;21146;-67
2023/03/07 01:01:23;;;;;;;25.60;12.45;;;;;;;0.16;78.16;99363.27;1786293;79;21102;-66
2023/03/07 01:03:52;;;;;;;23.95;11.85;;;;;;;0.15;78.21;99370.50;1774404;81;21144;-67
2023/03/07 01:06:26;;;;;;;27.35;12.50;;;;;;;0.13;78.22;99364.42;1774466;79;21507;-65
2023/03/07 01:08:58;;;;;;;23.18;12.58;;;;;;;0.11;78.17;99355.66;1774389;81;21096;-66
2023/03/07 01:11:28;;;;;;;24.87;12.43;;;;;;;0.10;78.27;99350.42;1764025;81;21139;-67
2023/03/07 01:13:58;;;;;;;25.72;12.43;;;;;;;0.11;78.31;99347.58;1774468;79;21076;-65
2023/03/07 01:16:32;;;;;;;23.77;12.15;;;;;;;0.11;78.38;99335.95;1774561;81;21562;-65
2023/03/07 01:26:05;;;;;;;25.35;12.33;;;;;;;0.15;78.50;99331.45;1829855;77;22588;-66
2023/03/07 01:28:34;;;;;;;23.05;11.90;;;;;;;0.11;78.61;99330.07;1788750;80;21158;-66
2023/03/07 01:31:04;;;;;;;22.95;11.25;;;;;;;0.12;78.70;99326.88;1788443;79;21087;-65
2023/03/07 01:33:34;;;;;;;25.50;12.10;;;;;;;0.12;78.75;99318.30;1788567;79;21107;-66
2023/03/07 01:36:04;;;;;;;23.40;11.68;;;;;;;0.15;78.83;99322.02;1788812;80;21139;-65
2023/03/07 01:38:33;;;;;;;23.02;11.78;;;;;;;0.15;78.78;99319.33;1788374;80;21562;-66
2023/03/07 01:41:05;;;;;;;25.15;12.20;;;;;;;0.16;78.75;99314.28;1788709;80;21131;-66
2023/03/07 01:43:34;;;;;;;23.30;11.93;;;;;;;0.18;78.75;99311.43;1788675;80;21526;-64
2023/03/07 01:46:25;;;;;;;23.92;11.45;;;;;;;0.18;78.70;99312.27;1788349;79;21169;-65
2023/03/07 01:49:11;;;;;;;21.57;11.12;;;;;;;0.17;78.66;99306.55;1788557;80;21138;-65
2023/03/07 01:51:45;;;;;;;25.40;11.95;;;;;;;0.19;78.68;99303.19;1788637;80;21531;-64
2023/03/07 01:54:16;;;;;;;25.77;12.43;;;;;;;0.17;78.66;99302.50;1788426;80;21557;-65
2023/03/07 01:56:46;;;;;;;25.65;12.13;;;;;;;0.16;78.66;99299.47;1788635;80;21115;-65
2023/03/07 01:59:27;;;;;;;24.25;12.90;;;;;;;0.14;78.65;99297.94;1788560;80;21141;-64
2023/03/07 02:01:59;;;;;;;23.60;12.37;;;;;;;0.14;78.81;99294.74;1788477;80;21095;-65
2023/03/07 02:05:03;;;;;;;22.17;11.88;;;;;;;0.16;78.82;99290.05;1788668;80;21174;-65
2023/03/07 02:07:38;;;;;;;25.12;12.63;;;;;;;0.16;78.86;99290.05;1769106;80;21099;-65
2023/03/07 02:10:10;;;;;;;28.62;13.28;;;;;;;0.16;78.79;99285.16;1788891;80;21075;-65
2023/03/07 02:12:40;;;;;;;31.77;14.73;;;;;;;0.17;78.84;99282.30;1788493;80;21126;-67
2023/03/07 02:15:11;;;;;;;29.32;14.10;;;;;;;0.19;78.83;99282.14;1788520;80;21154;-65
2023/03/07 02:17:42;;;;;;;29.72;14.53;;;;;;;0.20;78.86;99277.95;1788319;80;21123;-65
2023/03/07 02:20:35;;;;;;;30.05;13.78;;;;;;;0.18;78.77;99271.88;1788615;80;21193;-65
2023/03/07 02:23:07;;;;;;;23.45;12.80;;;;;;;0.17;78.80;99267.49;1788504;80;21146;-65
2023/03/07 02:25:51;;;;;;;23.77;12.63;;;;;;;0.19;78.78;99270.03;1766795;80;21154;-65
2023/03/07 02:28:20;;;;;;;24.90;12.30;;;;;;;0.19;78.78;99268.68;1785750;80;21111;-64
2023/03/07 02:31:05;;;;;;;27.35;12.63;;;;;;;0.15;78.69;99264.11;1785401;80;21186;-65
2023/03/07 02:33:36;;;;;;;20.43;10.10;;;;;;;0.14;78.68;99269.16;1791730;79;21115;-66
2023/03/07 02:36:11;;;;;;;24.23;12.15;;;;;;;0.11;78.68;99266.78;1785227;80;21119;-64
2023/03/07 02:38:51;;;;;;;26.02;12.73;;;;;;;0.09;78.67;99256.67;1784652;80;21592;-66
2023/03/07 02:41:27;;;;;;;28.27;13.35;;;;;;;0.06;78.64;99261.03;1784912;79;21522;-64
2023/03/07 02:43:59;;;;;;;30.95;13.55;;;;;;;0.02;78.69;99256.97;1785118;80;21151;-64
2023/03/07 02:46:28;;;;;;;25.65;13.22;;;;;;;-0.01;78.79;99259.94;1785073;80;21150;-66
2023/03/07 02:48:57;;;;;;;25.17;12.55;;;;;;;-0.04;78.91;99258.41;1785004;80;21107;-66
2023/03/07 02:51:28;;;;;;;23.25;11.90;;;;;;;-0.03;78.98;99252.53;1784955;80;21562;-65
2023/03/07 02:53:58;;;;;;;22.70;11.73;;;;;;;-0.03;79.02;99249.33;1784886;80;21091;-64
2023/03/07 02:56:26;;;;;;;25.32;12.25;;;;;;;-0.06;79.03;99245.61;1785179;80;21110;-66
2023/03/07 02:58:56;;;;;;;24.45;12.13;;;;;;;-0.06;79.17;99242.92;1784581;80;21562;-65
2023/03/07 03:01:25;;;;;;;24.57;11.90;;;;;;;-0.05;79.22;99246.45;1785120;80;21106;-64
2023/03/07 03:03:55;;;;;;;27.33;12.20;;;;;;;-0.06;79.25;99241.58;1784999;80;21531;-66
2023/03/07 03:06:24;;;;;;;22.73;11.50;;;;;;;-0.09;79.19;99242.39;1785145;80;21119;-65
2023/03/07 03:08:53;;;;;;;26.50;12.75;;;;;;;-0.12;79.20;99230.09;1785140;80;21145;-65
2023/03/07 03:11:24;;;;;;;26.10;12.40;;;;;;;-0.16;79.22;99231.41;1784755;79;21567;-66
2023/03/07 03:13:53;;;;;;;24.63;13.00;;;;;;;-0.20;79.32;99231.38;1784907;80;21087;-65
2023/03/07 03:16:23;;;;;;;24.85;12.03;;;;;;;-0.19;79.46;99238.95;1785207;80;21146;-64
2023/03/07 03:18:53;;;;;;;28.90;13.05;;;;;;;-0.16;79.59;99245.38;1785084;79;21107;-65
2023/03/07 03:21:21;;;;;;;30.25;14.70;;;;;;;-0.15;79.70;99240.33;1785118;80;21155;-66
2023/03/07 03:23:50;;;;;;;26.27;12.53;;;;;;;-0.15;79.73;99230.91;1784750;80;21119;-66
2023/03/07 03:26:19;;;;;;;25.55;12.03;;;;;;;-0.13;79.81;99230.25;1776213;80;21187;-66
2023/03/07 03:28:49;;;;;;;26.12;12.78;;;;;;;-0.12;79.77;99229.25;1774657;81;21147;-66
2023/03/07 03:31:18;;;;;;;28.75;13.03;;;;;;;-0.16;79.73;99226.53;1774617;81;21147;-65
2023/03/07 03:33:49;;;;;;;22.65;11.83;;;;;;;-0.18;79.88;99219.11;1774315;79;21152;-65
2023/03/07 03:36:18;;;;;;;25.95;12.20;;;;;;;-0.15;79.96;99226.88;1774644;81;21100;-65
2023/03/07 03:38:48;;;;;;;23.55;12.30;;;;;;;-0.15;79.99;99222.84;1774409;81;21147;-65
2023/03/07 03:41:20;;;;;;;24.77;12.65;;;;;;;-0.18;79.99;99228.03;1774583;79;21557;-64
2023/03/07 03:43:49;;;;;;;25.05;12.63;;;;;;;-0.16;80.13;99224.69;1774690;81;21571;-64
2023/03/07 03:46:20;;;;;;;23.90;12.10;;;;;;;-0.13;80.21;99216.80;1774478;81;21147;-65
2023/03/07 03:48:53;;;;;;;25.50;12.03;;;;;;;-0.12;80.16;99219.83;1774444;81;21173;-64
2023/03/07 03:51:24;;;;;;;23.20;11.97;;;;;;;-0.11;80.19;99214.28;1774418;79;21142;-64
2023/03/07 03:53:56;;;;;;;22.40;11.30;;;;;;;-0.10;80.14;99211.09;1774677;81;21493;-65
2023/03/07 03:56:25;;;;;;;24.80;12.50;;;;;;;-0.09;80.22;99212.78;1774457;79;21135;-66
2023/03/07 03:58:55;;;;;;;27.58;12.07;;;;;;;-0.06;80.26;99208.42;1774638;81;21143;-65
2023/03/07 04:01:27;;;;;;;27.27;13.55;;;;;;;-0.02;80.28;99209.79;1774488;79;21103;-64
2023/03/07 04:03:56;;;;;;;34.73;14.30;;;;;;;0.01;80.24;99204.12;1763500;81;21167;-65
2023/03/07 04:06:29;;;;;;;34.63;14.68;;;;;;;0.03;80.17;99202.61;1774428;81;21103;-64
2023/03/07 04:08:59;;;;;;;31.35;14.33;;;;;;;0.04;80.13;99213.22;1774559;79;21104;-65
2023/03/07 04:11:29;;;;;;;29.48;13.78;;;;;;;0.04;79.97;99205.65;1774601;81;21535;-64
2023/03/07 04:13:59;;;;;;;28.70;13.15;;;;;;;0.02;79.95;99204.97;1774307;79;21127;-64
2023/03/07 04:16:30;;;;;;;27.98;13.32;;;;;;;0.06;80.00;99210.38;1774728;81;21112;-65
2023/03/07 04:19:00;;;;;;;26.85;13.03;;;;;;;0.08;79.90;99218.63;1774401;81;21092;-66
2023/03/07 04:21:29;;;;;;;27.63;12.17;;;;;;;0.07;79.74;99213.41;1774534;81;21167;-65
2023/03/07 04:24:04;;;;;;;28.27;12.68;;;;;;;0.07;79.74;99212.91;1774312;80;21120;-66
2023/03/07 04:26:35;;;;;;;22.90;10.98;;;;;;;0.09;79.77;99207.36;1785252;79;21107;-64
2023/03/07 04:29:04;;;;;;;25.68;10.60;;;;;;;0.11;79.74;99203.50;1771173;80;21130;-65
2023/03/07 04:31:35;;;;;;;22.25;10.93;;;;;;;0.18;79.71;99200.50;1788367;80;21539;-67
2023/03/07 04:34:07;;;;;;;26.12;10.70;;;;;;;0.28;79.54;99204.42;1788289;79;21574;-63
2023/03/07 04:36:37;;;;;;;26.00;10.43;;;;;;;0.37;79.29;99199.91;1788438;80;21194;-63
2023/03/07 04:39:07;;;;;;;23.00;9.75;;;;;;;0.43;78.97;99201.95;1788515;80;21166;-64
2023/03/07 04:41:38;;;;;;;20.50;9.98;;;;;;;0.48;78.70;99200.46;1788189;80;21535;-65
2023/03/07 04:44:13;;;;;;;22.02;10.82;;;;;;;0.55;78.37;99200.66;1787734;80;21110;-65
2023/03/07 04:46:43;;;;;;;25.65;11.10;;;;;;;0.59;77.98;99197.97;1788413;80;21142;-66
2023/03/07 04:49:12;;;;;;;26.35;10.63;;;;;;;0.61;77.84;99190.56;1788237;80;21103;-66
2023/03/07 04:51:41;;;;;;;26.23;11.25;;;;;;;0.67;77.69;99195.33;1788135;79;21083;-64
2023/03/07 04:54:15;;;;;;;18.62;9.33;;;;;;;0.70;77.54;99200.39;1788309;80;21079;-65
2023/03/07 04:56:46;;;;;;;17.70;8.33;;;;;;;0.75;77.38;99194.01;1788171;80;21159;-64
2023/03/07 04:59:15;;;;;;;15.60;8.13;;;;;;;0.82;77.08;99192.34;1788439;80;21111;-64
2023/03/07 05:01:45;;;;;;;15.88;8.05;;;;;;;0.89;76.80;99190.66;1788302;80;21107;-66
2023/03/07 05:04:14;;;;;;;16.85;8.35;;;;;;;0.97;76.48;99180.90;1787960;80;21099;-65
2023/03/07 05:06:45;;;;;;;18.12;8.40;;;;;;;1.04;76.09;99178.72;1788181;79;21127;-63
2023/03/07 05:09:15;;;;;;;16.25;7.97;;;;;;;1.10;75.55;99173.16;1788185;80;21531;-65
2023/03/07 05:11:45;;;;;;;15.45;7.45;;;;;;;1.17;75.22;99168.28;1788108;80;21146;-65
2023/03/07 05:14:14;;;;;;;15.78;7.83;;;;;;;1.24;74.79;99167.09;1788307;79;21091;-65
2023/03/07 05:16:44;;;;;;;18.67;7.92;;;;;;;1.29;74.36;99166.09;1788457;80;21523;-64
2023/03/07 05:19:13;;;;;;;15.40;7.67;;;;;;;1.35;73.96;99171.34;1788421;80;21115;-65
2023/03/07 05:21:46;;;;;;;17.40;7.92;;;;;;;1.40;73.64;99164.93;1788288;80;21103;-65
2023/03/07 05:24:17;;;;;;;17.57;8.28;;;;;;;1.43;73.19;99174.88;1770674;80;21137;-66
2023/03/07 05:26:47;;;;;;;15.48;8.68;;;;;;;1.46;72.96;99179.09;1777475;80;21574;-64
2023/03/07 05:29:16;;;;;;;18.45;9.18;;;;;;;1.50;72.82;99186.69;1774601;79;21115;-65
2023/03/07 05:31:45;;;;;;;19.40;8.85;;;;;;;1.55;72.71;99187.02;1774118;80;21143;-65
2023/03/07 05:34:14;;;;;;;15.50;8.25;;;;;;;1.59;72.45;99182.97;1774429;79;21147;-64
2023/03/07 05:36:46;;;;;;;19.85;9.28;;;;;;;1.62;72.17;99183.64;1774743;81;21096;-65
2023/03/07 05:39:16;;;;;;;19.02;8.73;;;;;;;1.65;71.97;99183.30;1774274;81;21162;-65
2023/03/07 05:41:46;;;;;;;21.70;8.58;;;;;;;1.68;71.89;99189.70;1774279;81;21087;-63
2023/03/07 05:44:15;;;;;;;20.50;9.80;;;;;;;1.72;71.67;99190.55;1774342;79;21107;-68
2023/03/07 05:46:44;;;;;;;17.60;7.67;;;;;;;1.77;71.53;99192.22;1774614;81;21226;-65
2023/03/07 05:49:15;;;;;;;16.75;7.25;;;;;;;1.83;71.29;99189.34;1774470;80;21098;-64
2023/03/07 05:51:46;;;;;;;17.75;8.05;;;;;;;1.87;70.62;99188.83;1774615;79;21151;-64
2023/03/07 05:54:15;;;;;;;18.37;7.58;;;;;;;1.90;70.43;99187.13;1774343;81;21112;-66
2023/03/07 05:56:45;;;;;;;19.15;7.80;;;;;;;1.94;70.34;99188.98;1774538;81;21143;-66
2023/03/07 05:59:14;;;;;;;19.27;8.15;;;;;;;1.98;70.42;99200.31;1774841;80;21143;-64
2023/03/07 06:01:44;;;;;;;16.23;8.20;;;;;;;1.99;71.24;99202.84;1774030;81;21178;-66
2023/03/07 06:04:13;;;;;;;19.20;8.35;;;;;;;1.94;72.02;99206.53;1774491;79;21198;-66
2023/03/07 06:06:45;;;;;;;16.57;7.87;;;;;;;1.91;72.91;99206.88;1774688;79;21100;-65
2023/03/07 06:09:14;;;;;;;16.87;8.03;;;;;;;1.86;74.89;99213.30;1774489;80;21179;-64
2023/03/07 06:11:44;;;;;;;20.62;9.38;;;;;;;1.81;76.40;99212.47;1774556;81;21163;-62
2023/03/07 06:14:13;;;;;;;18.15;8.65;;;;;;;1.76;77.46;99216.69;1774453;80;21523;-64
2023/03/07 06:16:43;;;;;;;19.10;8.58;;;;;;;1.70;78.40;99210.13;1774352;80;21218;-64
2023/03/07 06:19:13;;;;;;;18.90;8.93;;;;;;;1.68;79.49;99208.60;1774552;80;21135;-63
2023/03/07 06:21:45;;;;;;;18.37;9.10;;;;;;;1.62;80.45;99204.73;1774459;80;21186;-64
2023/03/07 06:24:14;;;;;;;16.12;8.43;;;;;;;1.56;81.35;99207.60;1774485;81;21194;-64
2023/03/07 06:26:43;;;;;;;14.58;7.97;;;;;;;1.54;82.16;99207.43;1782491;80;21601;-63
2023/03/07 06:29:13;;;;;;;19.30;9.03;;;;;;;1.51;82.98;99212.66;1788353;80;21107;-63
2023/03/07 06:31:42;;;;;;;18.17;8.85;;;;;;;1.47;83.75;99202.38;1788000;80;21523;-63
2023/03/07 06:34:12;;;;;;;19.20;9.63;;;;;;;1.48;84.23;99206.76;1788492;80;21139;-62
2023/03/07 06:36:42;;;;;;;19.00;8.83;;;;;;;1.49;84.70;99202.54;1788176;80;21111;-64
2023/03/07 06:39:12;;;;;;;21.30;9.13;;;;;;;1.50;85.03;99205.58;1788011;80;21111;-64
2023/03/07 06:41:41;;;;;;;18.17;8.73;;;;;;;1.50;85.29;99206.09;1788288;80;21143;-63
2023/03/07 06:44:11;;;;;;;17.55;9.10;;;;;;;1.52;85.95;99209.45;1788165;80;21105;-65
2023/03/07 06:46:42;;;;;;;22.42;10.75;;;;;;;1.48;86.15;99198.66;1736434;82;21554;-64
2023/03/07 06:49:13;;;;;;;18.23;9.03;;;;;;;1.51;86.46;99198.33;1736768;82;21151;-64
2023/03/07 06:51:43;;;;;;;19.15;9.65;;;;;;;1.53;86.76;99191.75;1661486;86;21139;-63
2023/03/07 06:54:16;;;;;;;21.25;10.20;;;;;;;1.56;87.04;99191.41;1736300;82;21139;-64
2023/03/07 06:56:44;;;;;;;22.40;10.75;;;;;;;1.56;87.27;99190.05;1736536;82;21261;-64
2023/03/07 06:59:15;;;;;;;20.20;8.55;;;;;;;1.62;87.61;99194.44;1736457;82;21102;-65
2023/03/07 07:01:47;;;;;;;30.82;16.15;;;;;;;1.65;87.87;99191.39;1661245;86;21186;-64
2023/03/07 07:04:17;;;;;;;36.40;17.90;;;;;;;1.65;88.03;99189.54;1749635;80;21539;-63
2023/03/07 07:06:46;;;;;;;21.93;11.38;;;;;;;1.70;88.20;99184.98;1788402;80;21151;-63
2023/03/07 07:09:16;;;;;;;24.23;11.30;;;;;;;1.72;88.37;99185.14;1788345;80;21158;-63
2023/03/07 07:11:46;;;;;;;27.77;10.90;;;;;;;1.75;88.42;99181.25;1788112;80;21158;-62
2023/03/07 07:14:16;;;;;;;22.40;11.97;;;;;;;1.77;88.57;99180.58;1788031;80;21134;-64
2023/03/07 07:16:46;;;;;;;25.82;12.85;;;;;;;1.81;88.71;99172.47;1788149;80;21555;-63
2023/03/07 07:19:15;;;;;;;38.63;14.40;;;;;;;1.83;88.73;99175.84;1788021;79;21087;-63
2023/03/07 07:21:44;;;;;;;40.95;15.68;;;;;;;1.84;88.81;99170.27;1788669;80;21115;-64
2023/03/07 07:24:13;;;;;;;18.00;9.50;;;;;;;1.83;88.82;99171.28;1788249;79;21115;-64
2023/03/07 07:26:42;;;;;;;16.73;8.78;;;;;;;1.82;88.92;99167.41;1788198;79;21103;-63
2023/03/07 07:29:12;;;;;;;20.50;10.03;;;;;;;1.84;89.11;99170.77;1788207;80;21198;-65
2023/03/07 07:31:41;;;;;;;18.85;9.40;;;;;;;1.86;89.21;99174.15;1770639;80;21106;-65
2023/03/07 07:34:11;;;;;;;17.30;9.03;;;;;;;1.88;89.30;99174.31;1788532;80;21114;-64
2023/03/07 07:36:43;;;;;;;21.15;9.43;;;;;;;1.91;89.37;99171.77;1788504;80;21115;-65
2023/03/07 07:39:14;;;;;;;16.12;9.13;;;;;;;1.91;89.35;99175.31;1788384;80;21579;-65
2023/03/07 07:41:44;;;;;;;21.07;10.08;;;;;;;1.94;89.39;99179.53;1788513;80;21111;-66
2023/03/07 07:44:14;;;;;;;21.05;9.73;;;;;;;1.92;89.41;99174.80;1788326;80;21138;-67
2023/03/07 07:46:46;;;;;;;16.97;7.80;;;;;;;1.91;89.47;99172.61;1787514;79;21122;-68
2023/03/07 07:49:16;;;;;;;17.23;8.68;;;;;;;1.94;89.53;99178.18;1788382;80;21159;-68
2023/03/07 07:51:48;;;;;;;17.67;9.10;;;;;;;1.97;89.60;99181.08;1788401;79;21119;-67
2023/03/07 07:54:16;;;;;;;18.37;9.25;;;;;;;1.99;89.65;99185.28;1771015;80;21529;-66
2023/03/07 07:56:46;;;;;;;21.02;10.00;;;;;;;2.00;89.65;99187.48;1788205;80;21115;-68
2023/03/07 07:59:17;;;;;;;22.07;10.28;;;;;;;2.00;89.79;99185.63;1788369;80;21158;-66
2023/03/07 08:01:47;;;;;;;19.70;10.68;;;;;;;2.00;89.90;99186.97;1770769;80;21154;-63
2023/03/07 08:04:17;;;;;;;22.87;10.48;;;;;;;2.02;90.02;99191.69;1788226;80;21110;-65
2023/03/07 08:06:48;;;;;;;18.95;10.32;;;;;;;2.01;90.12;99189.16;1788485;80;21126;-65
2023/03/07 08:09:17;;;;;;;17.67;10.03;;;;;;;2.01;90.31;99195.41;1788425;80;21226;-63
2023/03/07 08:11:48;;;;;;;22.58;11.78;;;;;;;2.02;90.49;99191.69;1788214;80;21095;-65
2023/03/07 08:14:18;;;;;;;21.65;11.38;;;;;;;2.05;90.59;99190.50;1788229;80;21119;-66
2023/03/07 08:16:47;;;;;;;21.37;11.55;;;;;;;2.06;90.83;99194.39;1788200;80;21262;-69
2023/03/07 08:19:16;;;;;;;20.52;10.90;;;;;;;2.09;91.03;99187.28;1788463;80;21597;-69
2023/03/07 08:21:45;;;;;;;16.70;10.00;;;;;;;2.16;91.19;99186.92;1788071;80;21150;-69
2023/03/07 08:24:14;;;;;;;21.52;11.38;;;;;;;2.18;91.30;99185.40;1788412;80;21554;-66
2023/03/07 08:26:45;;;;;;;20.88;11.22;;;;;;;2.21;91.51;99186.41;1788123;80;21174;-69
2023/03/07 08:29:14;;;;;;;18.65;10.43;;;;;;;2.25;91.67;99184.20;1788294;80;21147;-66
2023/03/07 08:31:44;;;;;;;18.87;10.23;;;;;;;2.33;91.90;99180.95;1787438;80;21185;-65
2023/03/07 08:34:13;;;;;;;17.95;9.85;;;;;;;2.40;92.02;99178.39;1788067;80;21143;-66
2023/03/07 08:36:42;;;;;;;17.92;8.88;;;;;;;2.49;92.15;99184.09;1788297;80;21107;-66
2023/03/07 08:39:13;;;;;;;15.83;8.28;;;;;;;2.58;92.29;99180.33;1788375;80;21178;-65
2023/03/07 08:41:41;;;;;;;16.60;9.43;;;;;;;2.67;92.34;99179.81;1788352;80;21103;-66
2023/03/07 08:44:10;;;;;;;17.00;9.28;;;;;;;2.76;92.38;99176.05;1788144;79;21177;-65
2023/03/07 08:46:41;;;;;;;15.98;9.05;;;;;;;2.90;92.53;99179.84;1788204;80;21103;-66
2023/03/07 08:49:11;;;;;;;15.75;9.05;;;;;;;3.06;92.67;99176.52;1788382;79;21600;-67
2023/03/07 08:51:41;;;;;;;15.58;8.28;;;;;;;3.20;92.59;99180.31;1788331;79;21155;-65
2023/03/07 08:54:11;;;;;;;14.95;9.00;;;;;;;3.29;91.93;99173.01;1788566;80;21178;-66
2023/03/07 08:56:40;;;;;;;15.80;8.93;;;;;;;3.31;91.46;99179.92;1788242;80;21143;-67
2023/03/07 08:59:09;;;;;;;18.27;9.45;;;;;;;3.35;90.99;99177.70;1788278;80;21123;-66
2023/03/07 09:01:40;;;;;;;15.63;8.83;;;;;;;3.35;90.45;99180.40;1788178;80;21334;-67
2023/03/07 09:04:10;;;;;;;16.82;8.55;;;;;;;3.37;90.25;99190.53;1788203;80;21173;-67
2023/03/07 09:06:38;;;;;;;19.67;9.00;;;;;;;3.42;90.08;99187.62;1788150;80;21138;-69
2023/03/07 09:09:08;;;;;;;17.05;8.68;;;;;;;3.44;89.62;99190.14;1777952;79;21606;-66
2023/03/07 09:11:40;;;;;;;22.62;9.58;;;;;;;3.44;89.28;99185.56;1756892;80;21164;-67
2023/03/07 09:14:09;;;;;;;18.15;9.78;;;;;;;3.42;88.83;99197.09;1757361;80;21120;-64
2023/03/07 09:16:43;;;;;;;22.45;11.00;;;;;;;3.43;88.95;99193.87;1778620;80;21408;-68
2023/03/07 09:19:14;;;;;;;19.05;10.18;;;;;;;3.47;88.74;99195.19;1774577;79;21117;-65
2023/03/07 09:21:48;;;;;;;24.00;11.95;;;;;;;3.49;88.38;99191.79;1770624;80;21157;-66
2023/03/07 09:24:23;;;;;;;18.12;11.00;;;;;;;3.52;88.50;99198.70;1720891;83;21166;-69
2023/03/07 09:26:52;;;;;;;21.80;11.10;;;;;;;3.61;88.22;99191.69;1729756;83;21215;-66
2023/03/07 09:29:24;;;;;;;25.82;14.70;;;;;;;3.67;87.85;99192.81;1774196;81;21155;-64
2023/03/07 09:31:54;;;;;;;23.27;13.22;;;;;;;3.73;87.66;99194.80;1774454;81;21123;-71
2023/03/07 09:34:26;;;;;;;25.65;15.00;;;;;;;3.83;87.61;99192.16;1774387;81;21100;-66
2023/03/07 09:36:58;;;;;;;18.67;9.48;;;;;;;3.92;87.05;99191.59;1774188;81;21579;-66
2023/03/07 09:39:34;;;;;;;18.52;9.40;;;;;;;4.00;86.78;99188.80;1787837;80;21148;-67
2023/03/07 09:42:50;;;;;;;15.35;9.18;;;;;;;4.10;86.60;99200.20;1729763;83;21115;-68
2023/03/07 09:45:36;;;;;;;13.25;8.93;;;;;;;4.20;86.10;99208.58;1700617;82;21123;-65
2023/03/07 09:48:26;;;;;;;11.93;7.60;;;;;;;4.30;85.09;99202.36;1648395;86;21162;-71
2023/03/07 09:51:00;;;;;;;14.63;8.38;;;;;;;4.32;83.32;99205.22;1646101;87;21154;-69
2023/03/07 09:53:42;;;;;;;16.67;9.28;;;;;;;4.30;82.52;99201.84;1678465;85;21214;-66
2023/03/07 09:56:53;;;;;;;19.30;9.35;;;;;;;4.22;80.79;99202.45;1660844;85;21171;-67
2023/03/07 09:59:39;;;;;;;13.83;8.95;;;;;;;4.13;80.23;99205.25;1679261;85;21178;-61
2023/03/07 10:02:49;;;;;;;15.48;8.90;;;;;;;4.15;80.81;99201.00;1624655;88;21235;-63
2023/03/07 10:05:32;;;;;;;13.98;8.35;;;;;;;4.14;79.19;99198.81;1624691;88;21633;-64
2023/03/07 10:08:04;;;;;;;15.55;9.08;;;;;;;4.03;78.15;99198.42;1665152;83;21292;-66
2023/03/07 10:11:01;;;;;;;14.03;8.20;;;;;;;3.99;78.46;99192.53;1678506;85;21171;-71
2023/03/07 10:13:59;;;;;;;17.95;10.55;;;;;;;4.05;78.80;99193.66;1679091;85;21131;-67
2023/03/07 10:17:12;;;;;;;17.42;9.10;;;;;;;4.17;78.88;99189.98;1679280;85;21842;-66
2023/03/07 10:19:56;;;;;;;19.50;11.38;;;;;;;4.28;78.34;99187.64;1679113;85;21131;-68
2023/03/07 10:22:41;;;;;;;13.25;8.45;;;;;;;4.39;78.61;99187.17;1681633;84;21135;-68
2023/03/07 10:25:24;;;;;;;15.05;8.75;;;;;;;4.52;78.62;99183.79;1701774;84;21147;-67
2023/03/07 10:28:02;;;;;;;16.00;8.85;;;;;;;4.61;78.34;99173.70;1741030;82;21206;-68
2023/03/07 10:30:33;;;;;;;15.35;9.20;;;;;;;4.68;77.01;99180.06;1671602;86;21605;-69
2023/03/07 10:33:07;;;;;;;16.95;9.55;;;;;;;4.67;76.72;99173.79;1673248;85;21206;-66
2023/03/07 10:36:04;;;;;;;12.82;7.85;;;;;;;4.65;75.91;99173.14;1673430;86;21162;-67
2023/03/07 10:38:46;;;;;;;14.03;8.78;;;;;;;4.62;74.75;99175.39;1638228;86;21147;-67
2023/03/07 10:41:20;;;;;;;14.65;8.48;;;;;;;4.52;73.98;99166.16;1673274;85;21186;-68
2023/03/07 10:43:51;;;;;;;15.00;8.65;;;;;;;4.43;73.82;99168.14;1673462;86;21198;-64
2023/03/07 10:46:29;;;;;;;13.48;8.23;;;;;;;4.38;73.90;99172.44;1673391;85;21123;-67
2023/03/07 10:49:32;;;;;;;17.12;9.40;;;;;;;4.32;74.00;99169.13;1718171;82;21579;-67
2023/03/07 10:52:25;;;;;;;15.75;8.45;;;;;;;4.32;74.62;99165.90;1743861;82;21158;-66
2023/03/07 10:55:37;;;;;;;15.93;9.40;;;;;;;4.35;74.27;99164.17;1744093;82;21119;-66
2023/03/07 10:58:25;;;;;;;16.75;9.20;;;;;;;4.35;74.19;99161.45;1743398;82;21147;-66
2023/03/07 11:01:12;;;;;;;17.75;9.15;;;;;;;4.33;73.44;99157.25;1733585;82;21183;-65
2023/03/07 11:03:51;;;;;;;17.73;9.43;;;;;;;4.35;73.58;99153.33;1743874;82;21119;-65
2023/03/07 11:06:40;;;;;;;14.95;8.78;;;;;;;4.38;72.57;99148.88;1689340;85;21182;-68
2023/03/07 11:09:29;;;;;;;18.55;9.80;;;;;;;4.42;73.23;99155.61;1689410;85;21237;-66
2023/03/07 11:12:12;;;;;;;18.42;10.35;;;;;;;4.49;72.74;99151.62;1689358;85;21728;-66
2023/03/07 11:15:20;;;;;;;16.00;9.53;;;;;;;4.53;72.26;99156.16;1689286;85;21265;-67
2023/03/07 11:17:52;;;;;;;15.65;9.25;;;;;;;4.57;72.19;99148.83;1689172;85;21229;-68
2023/03/07 11:20:33;;;;;;;15.75;8.88;;;;;;;4.59;72.00;99154.91;1689265;85;21150;-69
2023/03/07 11:23:26;;;;;;;17.23;9.00;;;;;;;4.64;71.55;99156.54;1697625;83;21154;-67
2023/03/07 11:25:56;;;;;;;20.30;9.55;;;;;;;4.69;71.47;99146.47;1718219;83;21142;-67
2023/03/07 11:28:32;;;;;;;19.75;10.03;;;;;;;4.72;70.48;99153.71;1710886;82;21198;-66
2023/03/07 11:31:12;;;;;;;17.32;9.10;;;;;;;4.77;70.59;99150.42;1708059;84;21158;-67
2023/03/07 11:34:01;;;;;;;17.85;10.28;;;;;;;4.84;70.85;99154.57;1708287;84;21186;-68
2023/03/07 11:36:35;;;;;;;17.92;9.58;;;;;;;4.92;70.85;99151.73;1708209;84;21146;-67
2023/03/07 11:39:39;;;;;;;15.28;9.18;;;;;;;4.98;69.70;99155.05;1708132;84;21202;-69
2023/03/07 11:42:21;;;;;;;17.67;8.95;;;;;;;4.96;68.66;99155.75;1708340;84;21214;-67
2023/03/07 11:45:00;;;;;;;16.48;8.60;;;;;;;4.93;69.10;99157.48;1750194;82;21161;-66
2023/03/07 11:48:10;;;;;;;20.48;9.25;;;;;;;4.96;69.22;99153.88;1724905;82;21165;-69
2023/03/07 11:50:40;;;;;;;;;;;;;;;4.99;69.05;99151.30;1754642;82;21208;-67
2023/03/07 11:54:04;;;;;;;21.52;9.10;;;;;;;5.05;69.46;99154.08;1752326;82;20268;-67
2023/03/07 11:57:08;;;;;;;16.30;8.98;;;;;;;5.10;69.38;99150.27;1751978;82;21201;-68
2023/03/07 12:00:32;;;;;;;19.00;10.45;;;;;;;5.21;69.10;99147.58;1725628;82;21600;-68
2023/03/07 12:03:35;;;;;;;20.45;9.93;;;;;;;5.26;68.69;99145.64;1752083;80;21204;-67
2023/03/07 12:06:36;;;;;;;20.08;10.28;;;;;;;5.32;68.36;99141.63;1751943;80;21137;-73
2023/03/07 12:09:44;;;;;;;19.77;10.03;;;;;;;5.38;67.57;99158.50;1751762;81;21118;-68